Sonseca, Spain
Current Conditions -  °F | °C
As of 2:00 PM on Friday 19 Dec 2014 (Local Time) from LEGT Reporting Station
Clear Clear  
Wind Chill: 52°   Ceiling: Unl
Heat Index: 52°   Visibility: 6mi
Dew Point: 45°   Wind: 3mph
Humidity: 76%   Direction: 90°E
Pressure: 30.42"   Gusts: NA
Location:  39.68°N, 3.97°W
Report Text: LEGT 191300Z 09003KT 9000 NSC 11/07 Q1030
Loading
Personal Weather Stations






























Interactive Weather Map New forecast layout! Learn more

10-Day Weather Forecast

Advertisements
Track Severe Weather on mobile